Time;durP1;ratioP1;P1;durP2;ratioP2;P2;SDS_P1;SDS_P2;PMS_P1;PMS_P2;Temp;Humidity;BMP_temperature;BMP_pressure;BME280_temperature;BME280_humidity;BME280_pressure;Samples;Min_cycle;Max_cycle;Signal;HPM_P1;HPM_P2
2021/12/14 00:01:48;;;;;;;16.65;8.30;;;7.40;99.90;;;;;;5095098;28;20035;-83
2021/12/14 00:04:25;;;;;;;17.27;7.90;;;7.40;99.90;;;;;;5094965;28;20020;-84
2021/12/14 00:06:53;;;;;;;12.98;7.35;;;7.30;99.90;;;;;;5094735;28;20024;-84
2021/12/14 00:09:29;;;;;;;15.50;7.10;;;7.30;99.90;;;;;;5095060;28;20020;-83
2021/12/14 00:17:08;;;;;;;14.88;7.95;;;7.20;99.90;;;;;;5095829;28;20027;-83
2021/12/14 00:19:35;;;;;;;16.30;8.07;;;7.20;99.90;;;;;;5094606;28;20345;-84
2021/12/14 00:22:07;;;;;;;16.33;8.77;;;7.30;99.90;;;;;;5095228;28;20024;-83
2021/12/14 00:24:34;;;;;;;19.67;8.80;;;7.30;99.90;;;;;;5094673;28;20463;-83
2021/12/14 00:27:06;;;;;;;16.90;8.67;;;7.30;99.90;;;;;;5095179;28;20024;-84
2021/12/14 00:29:36;;;;;;;15.57;8.67;;;7.30;99.90;;;;;;5094822;28;20027;-83
2021/12/14 00:32:06;;;;;;;15.15;8.57;;;7.20;99.90;;;;;;5094908;28;20141;-82
2021/12/14 00:34:41;;;;;;;19.38;9.07;;;7.30;99.90;;;;;;5094399;28;20016;-83
2021/12/14 00:37:17;;;;;;;19.83;9.93;;;7.30;99.90;;;;;;5094188;28;20096;-83
2021/12/14 00:39:44;;;;;;;14.43;8.90;;;7.30;99.90;;;;;;5094816;28;20055;-84
2021/12/14 00:42:11;;;;;;;17.92;9.48;;;7.30;99.90;;;;;;5094093;28;20020;-83
2021/12/14 00:44:37;;;;;;;19.45;9.35;;;7.20;99.90;;;;;;5094978;28;20031;-83
2021/12/14 00:47:04;;;;;;;14.85;8.65;;;7.20;99.90;;;;;;5093737;28;20134;-83
2021/12/14 00:49:30;;;;;;;16.65;8.57;;;7.20;99.90;;;;;;5095276;28;20020;-83
2021/12/14 00:51:56;;;;;;;18.10;8.63;;;7.20;99.90;;;;;;5093430;28;20475;-83
2021/12/14 00:54:22;;;;;;;17.60;8.85;;;7.20;99.90;;;;;;5093611;28;20024;-83
2021/12/14 00:56:50;;;;;;;18.00;8.65;;;7.20;99.90;;;;;;5093256;28;20050;-83
2021/12/14 00:59:18;;;;;;;15.40;8.75;;;7.10;99.90;;;;;;5095017;28;20075;-83
2021/12/14 01:01:51;;;;;;;18.17;9.20;;;7.10;99.90;;;;;;5094144;28;20032;-83
2021/12/14 01:04:25;;;;;;;14.82;8.32;;;7.20;99.90;;;;;;5094778;28;20050;-83
2021/12/14 01:06:52;;;;;;;14.35;8.57;;;7.10;99.90;;;;;;5093627;28;20367;-83
2021/12/14 01:09:29;;;;;;;14.73;8.05;;;7.20;99.90;;;;;;5094078;28;20055;-84
2021/12/14 01:12:02;;;;;;;14.83;8.03;;;7.20;99.90;;;;;;5094532;28;20023;-83
2021/12/14 01:14:40;;;;;;;13.82;8.07;;;7.20;99.90;;;;;;5114957;28;20138;-83
2021/12/14 01:17:14;;;;;;;12.63;7.60;;;7.10;99.90;;;;;;5096934;28;20381;-84
2021/12/14 01:19:51;;;;;;;13.73;7.22;;;7.10;99.90;;;;;;5096934;28;20023;-83
2021/12/14 01:25:14;;;;;;;15.30;7.60;;;7.20;99.90;;;;;;5114229;28;20415;-83
2021/12/14 01:27:45;;;;;;;14.10;8.00;;;7.20;99.90;;;;;;5114974;28;20018;-84
2021/12/14 01:30:23;;;;;;;17.23;7.93;;;7.20;99.90;;;;;;5097019;28;20077;-83
2021/12/14 01:32:50;;;;;;;13.77;7.57;;;7.20;99.90;;;;;;5096416;28;20027;-83
2021/12/14 01:35:21;;;;;;;14.07;7.40;;;7.10;99.90;;;;;;5096926;28;20114;-84
2021/12/14 01:38:00;;;;;;;13.63;7.43;;;7.10;99.90;;;;;;5096772;28;20407;-84
2021/12/14 01:40:53;;;;;;;11.77;6.70;;;7.20;99.90;;;;;;5114680;28;20106;-83
2021/12/14 01:43:17;;;;;;;13.52;7.03;;;7.20;99.90;;;;;;5114266;28;20034;-83
2021/12/14 01:45:43;;;;;;;11.97;6.70;;;7.10;99.90;;;;;;5096881;28;20355;-83
2021/12/14 01:48:09;;;;;;;14.07;6.90;;;7.10;99.90;;;;;;5096232;28;20020;-83
2021/12/14 01:50:57;;;;;;;11.05;6.65;;;7.10;99.90;;;;;;5114342;28;20039;-83
2021/12/14 01:53:24;;;;;;;10.52;6.80;;;7.10;99.90;;;;;;5096511;28;20024;-83
2021/12/14 01:55:55;;;;;;;10.68;6.05;;;6.90;99.90;;;;;;5113854;28;20061;-83
2021/12/14 01:58:25;;;;;;;13.88;6.70;;;6.90;99.90;;;;;;5096924;28;20046;-83
2021/12/14 02:00:59;;;;;;;10.48;5.90;;;6.90;99.90;;;;;;5095983;28;20027;-83
2021/12/14 02:03:35;;;;;;;10.53;6.10;;;6.90;99.90;;;;;;5096613;28;20032;-83
2021/12/14 02:06:01;;;;;;;10.70;6.00;;;6.90;99.90;;;;;;5114682;28;20099;-84
2021/12/14 02:08:32;;;;;;;12.40;5.83;;;7.00;99.90;;;;;;5118580;28;20108;-83
2021/12/14 02:10:59;;;;;;;10.57;5.85;;;6.90;99.90;;;;;;5099981;28;20028;-84
2021/12/14 02:13:35;;;;;;;11.33;6.23;;;6.90;99.90;;;;;;5100522;28;20115;-84
2021/12/14 02:16:03;;;;;;;11.67;6.63;;;6.90;99.90;;;;;;5117745;28;20102;-83
2021/12/14 02:18:29;;;;;;;15.20;7.43;;;6.90;99.90;;;;;;5100508;28;20023;-83
2021/12/14 02:21:09;;;;;;;12.20;6.80;;;6.90;99.90;;;;;;5100092;28;20085;-83
2021/12/14 02:23:44;;;;;;;13.23;6.30;;;7.00;99.90;;;;;;5100413;28;20055;-84
2021/12/14 02:26:15;;;;;;;14.00;6.70;;;7.00;99.90;;;;;;5099682;28;20024;-83
2021/12/14 02:28:41;;;;;;;12.37;7.17;;;7.10;99.90;;;;;;5118135;28;20116;-83
2021/12/14 02:31:10;;;;;;;13.70;7.60;;;7.10;99.90;;;;;;5099640;28;20031;-84
2021/12/14 02:33:39;;;;;;;18.33;8.07;;;7.10;99.90;;;;;;5100054;28;20112;-84
2021/12/14 02:36:12;;;;;;;16.50;7.43;;;7.10;99.90;;;;;;5117601;28;20460;-84
2021/12/14 02:38:47;;;;;;;15.57;9.40;;;7.00;99.90;;;;;;5099849;28;20026;-83
2021/12/14 02:41:13;;;;;;;13.50;7.83;;;7.10;99.90;;;;;;5099371;28;20039;-84
2021/12/14 02:43:50;;;;;;;16.50;8.60;;;7.00;99.90;;;;;;5117855;28;20028;-84
2021/12/14 02:46:17;;;;;;;14.03;7.80;;;7.00;99.90;;;;;;5117970;28;20031;-84
2021/12/14 02:48:47;;;;;;;15.30;8.53;;;7.00;99.90;;;;;;5100216;28;20052;-83
2021/12/14 02:51:20;;;;;;;15.93;8.57;;;7.00;99.90;;;;;;5099160;28;20060;-84
2021/12/14 02:53:49;;;;;;;13.03;8.20;;;7.00;99.90;;;;;;5099705;28;20027;-83
2021/12/14 02:56:18;;;;;;;14.53;8.63;;;7.00;99.90;;;;;;5117280;28;20483;-84
2021/12/14 02:58:47;;;;;;;15.40;7.53;;;7.00;99.90;;;;;;5099580;28;20145;-83
2021/12/14 03:01:14;;;;;;;15.03;7.67;;;7.00;99.90;;;;;;5117169;28;20527;-84
2021/12/14 03:03:40;;;;;;;13.00;7.67;;;7.00;99.90;;;;;;5099676;28;20027;-83
2021/12/14 03:06:09;;;;;;;11.13;7.23;;;7.00;99.90;;;;;;5099001;28;20020;-83
2021/12/14 03:08:44;;;;;;;18.87;7.93;;;7.00;99.90;;;;;;5099555;28;20023;-84
2021/12/14 03:11:11;;;;;;;13.40;7.03;;;6.90;99.90;;;;;;5117127;28;20439;-83
2021/12/14 03:13:51;;;;;;;12.10;6.80;;;6.90;99.90;;;;;;5098871;28;20135;-83
2021/12/14 03:16:29;;;;;;;11.13;6.80;;;7.00;99.90;;;;;;5099583;28;20020;-83
2021/12/14 03:18:58;;;;;;;11.60;6.93;;;6.90;99.90;;;;;;5098663;28;20457;-83
2021/12/14 03:21:25;;;;;;;15.13;6.87;;;7.00;99.90;;;;;;5117020;28;20077;-83
2021/12/14 03:23:57;;;;;;;9.67;6.67;;;6.90;99.90;;;;;;5098942;28;20019;-83
2021/12/14 03:26:26;;;;;;;16.37;7.73;;;6.90;99.90;;;;;;5116777;28;20019;-84
2021/12/14 03:28:55;;;;;;;17.40;7.67;;;6.90;99.90;;;;;;5098527;28;20341;-84
2021/12/14 03:31:23;;;;;;;14.40;7.60;;;6.90;99.90;;;;;;5099004;28;20027;-83
2021/12/14 03:34:00;;;;;;;15.13;8.37;;;7.00;99.90;;;;;;5116988;28;20020;-84
2021/12/14 03:36:34;;;;;;;14.85;7.25;;;6.90;99.90;;;;;;5098977;28;20020;-83
2021/12/14 03:39:10;;;;;;;15.67;8.17;;;6.90;99.90;;;;;;5098382;28;20046;-83
2021/12/14 03:41:43;;;;;;;16.23;8.32;;;6.90;99.90;;;;;;5098277;28;20036;-83
2021/12/14 03:44:20;;;;;;;13.57;8.18;;;6.90;99.90;;;;;;5116390;28;20357;-83
2021/12/14 03:46:54;;;;;;;12.48;7.25;;;6.90;99.90;;;;;;5116740;28;20098;-83
2021/12/14 03:49:25;;;;;;;14.45;7.68;;;6.90;99.90;;;;;;5098609;28;20047;-83
2021/12/14 03:51:51;;;;;;;15.87;8.53;;;6.90;99.90;;;;;;5098694;28;20024;-84
2021/12/14 03:54:19;;;;;;;14.17;8.37;;;6.80;99.90;;;;;;5097999;28;20030;-83
2021/12/14 03:56:45;;;;;;;17.83;8.87;;;6.70;99.90;;;;;;5116338;28;20024;-83
2021/12/14 03:59:11;;;;;;;17.53;9.23;;;6.70;99.90;;;;;;5098280;28;20019;-83
2021/12/14 04:01:41;;;;;;;16.40;8.97;;;6.70;99.90;;;;;;5098755;28;20030;-83
2021/12/14 04:04:22;;;;;;;21.57;10.80;;;6.70;99.90;;;;;;5115914;28;20049;-83
2021/12/14 04:06:54;;;;;;;20.67;10.90;;;6.60;99.90;;;;;;5116338;28;20397;-83
2021/12/14 04:09:23;;;;;;;20.10;10.15;;;6.60;99.90;;;;;;5098330;28;20051;-82
2021/12/14 04:11:49;;;;;;;20.17;11.13;;;6.60;99.90;;;;;;5116512;28;20024;-83
2021/12/14 04:14:15;;;;;;;22.77;12.37;;;6.60;99.90;;;;;;5094080;28;20062;-83
2021/12/14 04:16:44;;;;;;;27.83;11.80;;;6.60;99.90;;;;;;5094489;28;20054;-83
2021/12/14 04:19:13;;;;;;;23.30;11.30;;;6.60;99.90;;;;;;5094039;28;20020;-83
2021/12/14 04:21:42;;;;;;;21.97;11.60;;;6.60;99.90;;;;;;5094370;28;20093;-84
2021/12/14 04:24:09;;;;;;;25.30;11.87;;;6.60;99.90;;;;;;5094021;28;20030;-83
2021/12/14 04:26:37;;;;;;;25.30;12.03;;;6.60;99.90;;;;;;5094306;28;20027;-83
2021/12/14 04:29:04;;;;;;;22.93;12.00;;;6.60;99.90;;;;;;5093462;28;20051;-83
2021/12/14 04:31:34;;;;;;;24.73;12.20;;;6.60;99.90;;;;;;5095498;28;20165;-83
2021/12/14 04:34:01;;;;;;;22.67;11.97;;;6.60;99.90;;;;;;5093976;28;20020;-83
2021/12/14 04:36:28;;;;;;;26.83;12.47;;;6.60;99.90;;;;;;5094364;28;20023;-83
2021/12/14 04:39:17;;;;;;;28.90;12.27;;;6.60;99.90;;;;;;5094556;28;20024;-82
2021/12/14 04:52:59;;;;;;;23.20;11.77;;;6.60;99.90;;;;;;5095063;28;20062;-83
2021/12/14 04:55:25;;;;;;;24.27;12.33;;;6.60;99.90;;;;;;5094092;28;20024;-83
2021/12/14 04:57:50;;;;;;;23.67;12.43;;;6.60;99.90;;;;;;5093990;28;20028;-83
2021/12/14 05:00:19;;;;;;;22.60;11.60;;;6.60;99.90;;;;;;5093536;28;20057;-82
2021/12/14 05:02:46;;;;;;;27.53;11.67;;;6.60;99.90;;;;;;5093792;28;20376;-83
2021/12/14 05:05:20;;;;;;;29.83;13.47;;;6.60;99.90;;;;;;5093402;28;20020;-83
2021/12/14 05:10:40;;;;;;;;;;;6.50;99.90;;;;;;5095408;28;20089;-83
2021/12/14 05:13:07;;;;;;;26.73;12.33;;;6.50;99.90;;;;;;5092987;28;19911;-83
2021/12/14 05:15:36;;;;;;;27.63;12.37;;;6.50;99.90;;;;;;5094113;28;20062;-83
2021/12/14 05:18:11;;;;;;;32.90;14.23;;;6.50;99.90;;;;;;5093132;28;20456;-83
2021/12/14 05:20:41;;;;;;;30.57;12.83;;;6.50;99.90;;;;;;5093849;28;20372;-83
2021/12/14 05:23:07;;;;;;;27.60;13.03;;;6.40;99.90;;;;;;5093227;28;20035;-83
2021/12/14 05:25:33;;;;;;;34.93;13.60;;;6.40;99.90;;;;;;5093477;28;20020;-83
2021/12/14 05:28:01;;;;;;;27.20;12.27;;;6.30;99.90;;;;;;5093153;28;20020;-82
2021/12/14 05:30:36;;;;;;;29.30;13.23;;;6.40;99.90;;;;;;5094614;28;20024;-83
2021/12/14 05:33:06;;;;;;;34.47;12.90;;;6.40;99.90;;;;;;5093143;28;20070;-83
2021/12/14 05:35:32;;;;;;;33.30;14.20;;;6.40;99.90;;;;;;5093426;28;20112;-83
2021/12/14 05:38:00;;;;;;;30.40;12.27;;;6.40;99.90;;;;;;5093124;28;20020;-83
2021/12/14 05:43:05;;;;;;;29.93;13.03;;;6.40;99.90;;;;;;5092511;28;20030;-83
2021/12/14 05:43:28;;;;;;;29.88;12.95;;;6.40;99.90;;;;;;5085553;28;20039;-82
2021/12/14 05:46:00;;;;;;;28.77;12.53;;;6.40;99.90;;;;;;5094284;28;20024;-83
2021/12/14 05:48:30;;;;;;;28.93;13.33;;;6.40;99.90;;;;;;5093526;28;20024;-83
2021/12/14 05:50:59;;;;;;;27.83;13.50;;;6.30;99.90;;;;;;5092779;28;20028;-82
2021/12/14 05:53:37;;;;;;;29.07;12.80;;;6.30;99.90;;;;;;5093159;28;20051;-83
2021/12/14 05:56:10;;;;;;;29.63;12.27;;;6.30;99.90;;;;;;5093594;28;20020;-82
2021/12/14 05:58:36;;;;;;;31.03;13.03;;;6.30;99.90;;;;;;5093860;28;20020;-82
2021/12/14 06:01:08;;;;;;;31.47;13.13;;;6.30;99.90;;;;;;5093804;28;20492;-83
2021/12/14 06:03:41;;;;;;;38.30;14.13;;;6.30;99.90;;;;;;5094375;28;20109;-83
2021/12/14 06:06:39;;;;;;;36.33;13.50;;;6.30;99.90;;;;;;5092932;28;20024;-83
2021/12/14 06:09:29;;;;;;;37.10;13.30;;;6.30;99.90;;;;;;5092958;28;20027;-83
2021/12/14 06:11:59;;;;;;;32.93;13.37;;;6.30;99.90;;;;;;5093147;28;20456;-83
2021/12/14 06:14:28;;;;;;;40.23;13.40;;;6.30;99.90;;;;;;5092436;28;20055;-83
2021/12/14 06:17:00;;;;;;;42.00;13.70;;;6.30;99.90;;;;;;5094039;28;20027;-83
2021/12/14 06:19:35;;;;;;;39.50;13.90;;;6.20;99.90;;;;;;5093110;28;20020;-83
2021/12/14 06:22:14;;;;;;;41.37;13.30;;;6.20;99.90;;;;;;5090639;28;20032;-83
2021/12/14 06:24:45;;;;;;;37.87;12.77;;;6.10;99.90;;;;;;5072711;28;20097;-83
2021/12/14 06:27:15;;;;;;;26.07;9.10;;;6.10;99.90;;;;;;5092768;28;20023;-83
2021/12/14 06:30:00;;;;;;;42.73;13.07;;;6.00;99.90;;;;;;5093003;28;20255;-82
2021/12/14 06:32:31;;;;;;;39.87;12.87;;;5.90;99.90;;;;;;5092582;28;20028;-82
2021/12/14 06:35:10;;;;;;;36.30;13.20;;;5.90;99.90;;;;;;5092805;28;20027;-82
2021/12/14 06:40:38;;;;;;;32.37;10.97;;;5.90;99.90;;;;;;5093570;28;20055;-83
2021/12/14 06:43:09;;;;;;;33.53;11.10;;;5.90;99.90;;;;;;5093107;28;20056;-83
2021/12/14 06:45:39;;;;;;;30.13;11.53;;;5.90;99.90;;;;;;5093124;28;20020;-83
2021/12/14 06:48:13;;;;;;;32.10;11.27;;;5.90;99.90;;;;;;5092159;28;20025;-83
2021/12/14 06:50:55;;;;;;;22.70;8.73;;;5.90;99.90;;;;;;5093878;28;20032;-82
2021/12/14 06:53:21;;;;;;;32.00;10.50;;;5.90;99.90;;;;;;5094947;28;20024;-82
2021/12/14 06:55:54;;;;;;;22.77;8.40;;;5.90;99.90;;;;;;5096308;28;20471;-81
2021/12/14 06:58:24;;;;;;;;;;;5.90;99.90;;;;;;5097249;28;20069;-82
2021/12/14 07:01:04;;;;;;;23.07;7.80;;;5.80;99.90;;;;;;5097281;28;19903;-82
2021/12/14 07:03:41;;;;;;;24.73;8.83;;;5.80;99.90;;;;;;5096475;28;20039;-82
2021/12/14 07:06:08;;;;;;;14.57;6.20;;;5.90;99.90;;;;;;5095767;28;20039;-83
2021/12/14 07:08:34;;;;;;;16.87;6.80;;;5.80;99.90;;;;;;5097151;28;20067;-82
2021/12/14 07:10:59;;;;;;;17.37;6.53;;;5.80;99.90;;;;;;5096135;28;20024;-82
2021/12/14 07:13:35;;;;;;;17.37;6.73;;;5.80;99.90;;;;;;5095358;28;20070;-82
2021/12/14 07:16:03;;;;;;;17.80;6.37;;;5.80;99.90;;;;;;5095969;28;20024;-81
2021/12/14 07:18:32;;;;;;;20.87;6.73;;;5.70;99.90;;;;;;5095727;28;20024;-82
2021/12/14 07:20:58;;;;;;;15.80;7.60;;;5.70;99.90;;;;;;5095863;28;20027;-82
2021/12/14 07:23:34;;;;;;;18.93;6.83;;;5.70;99.90;;;;;;5095217;28;20031;-82
2021/12/14 07:26:10;;;;;;;19.13;7.60;;;5.70;99.90;;;;;;5095712;28;20475;-81
2021/12/14 07:28:39;;;;;;;17.47;6.73;;;5.70;99.90;;;;;;5095797;28;20016;-83
2021/12/14 07:31:16;;;;;;;17.57;6.80;;;5.70;99.90;;;;;;5095523;28;20056;-83
2021/12/14 07:33:54;;;;;;;18.30;7.33;;;5.70;99.90;;;;;;5095861;28;20046;-82
2021/12/14 07:36:26;;;;;;;17.43;7.17;;;5.70;99.90;;;;;;5095315;28;20020;-83
2021/12/14 07:39:06;;;;;;;;;;;5.70;99.90;;;;;;5096097;28;20027;-83
2021/12/14 07:41:40;;;;;;;18.90;7.67;;;5.70;99.90;;;;;;5096436;28;19912;-83
2021/12/14 07:44:16;;;;;;;19.17;7.53;;;5.70;99.90;;;;;;5095289;28;20024;-83
2021/12/14 07:46:46;;;;;;;18.30;7.97;;;5.70;99.90;;;;;;5096546;28;20027;-82
2021/12/14 07:49:19;;;;;;;22.97;8.90;;;5.60;99.90;;;;;;5095746;28;20020;-83
2021/12/14 07:51:47;;;;;;;25.30;8.80;;;5.70;99.90;;;;;;5096401;28;20039;-83
2021/12/14 07:54:25;;;;;;;26.10;9.63;;;5.60;99.90;;;;;;5094651;28;20012;-82
2021/12/14 07:56:58;;;;;;;24.97;9.00;;;5.60;99.90;;;;;;5095093;28;20024;-83
2021/12/14 07:59:23;;;;;;;25.53;9.03;;;5.70;99.90;;;;;;5094911;28;20020;-83
2021/12/14 08:02:06;;;;;;;25.33;8.70;;;5.60;99.90;;;;;;5095190;28;20034;-83
2021/12/14 08:04:34;;;;;;;27.80;9.80;;;5.60;99.90;;;;;;5094972;28;20081;-82
2021/12/14 08:06:59;;;;;;;28.70;9.40;;;5.60;99.90;;;;;;5094954;28;20028;-83
2021/12/14 08:09:52;;;;;;;33.03;10.37;;;5.60;99.90;;;;;;5095589;28;20031;-82
2021/12/14 08:12:32;;;;;;;25.20;9.80;;;5.60;99.90;;;;;;5096012;28;20061;-83
2021/12/14 08:15:06;;;;;;;30.83;10.53;;;5.60;99.90;;;;;;5098369;28;20024;-82
2021/12/14 08:17:32;;;;;;;30.00;9.93;;;5.70;99.90;;;;;;5097812;28;20043;-82
2021/12/14 08:19:58;;;;;;;31.80;10.30;;;5.60;99.90;;;;;;5098203;28;20027;-82
2021/12/14 08:22:33;;;;;;;24.17;10.10;;;5.70;99.90;;;;;;5097658;28;20034;-83
2021/12/14 08:24:59;;;;;;;31.57;10.60;;;5.60;99.90;;;;;;5097940;28;20019;-82
2021/12/14 08:27:28;;;;;;;32.40;10.93;;;5.70;99.90;;;;;;5097306;28;20020;-82
2021/12/14 08:29:59;;;;;;;29.13;10.90;;;5.70;99.90;;;;;;5115911;28;20062;-83
2021/12/14 08:32:33;;;;;;;32.20;11.50;;;5.70;99.90;;;;;;5096391;28;20019;-83
2021/12/14 08:35:01;;;;;;;31.07;10.90;;;5.80;99.90;;;;;;5097758;28;20031;-82
2021/12/14 08:37:34;;;;;;;29.27;11.40;;;5.80;99.90;;;;;;5115213;28;20058;-82
2021/12/14 08:40:09;;;;;;;28.73;11.03;;;5.70;99.90;;;;;;5097960;28;20024;-83
2021/12/14 08:42:54;;;;;;;32.03;12.00;;;5.60;99.90;;;;;;5097944;28;20039;-83
2021/12/14 08:45:26;;;;;;;31.47;10.93;;;5.60;99.90;;;;;;5097283;28;20058;-82
2021/12/14 08:48:30;;;;;;;32.83;11.57;;;5.60;99.90;;;;;;5115477;28;20023;-82
2021/12/14 08:51:15;;;;;;;29.73;10.43;;;5.70;99.90;;;;;;5097371;28;20106;-82
2021/12/14 08:53:46;;;;;;;33.43;10.73;;;5.70;99.90;;;;;;5097709;28;20051;-83
2021/12/14 08:56:14;;;;;;;26.87;10.37;;;5.70;99.90;;;;;;5096324;28;20379;-83
2021/12/14 08:58:42;;;;;;;28.60;10.93;;;5.70;99.90;;;;;;5097349;28;20020;-83
2021/12/14 09:01:14;;;;;;;33.50;10.83;;;5.70;99.90;;;;;;5097293;28;20023;-83
2021/12/14 09:03:49;;;;;;;32.30;11.50;;;5.70;99.90;;;;;;5097350;28;20051;-83
2021/12/14 09:06:18;;;;;;;33.30;11.07;;;5.70;99.90;;;;;;5096856;28;20020;-82
2021/12/14 09:08:46;;;;;;;32.73;10.40;;;5.60;99.90;;;;;;5097056;28;20016;-82
2021/12/14 09:11:17;;;;;;;28.97;9.87;;;5.60;99.90;;;;;;5096577;28;20034;-82
2021/12/14 09:13:43;;;;;;;33.03;11.20;;;5.60;99.90;;;;;;5115046;28;20047;-82
2021/12/14 09:16:18;;;;;;;34.10;11.07;;;5.60;99.90;;;;;;5096938;28;20119;-82
2021/12/14 09:19:04;;;;;;;33.87;10.73;;;5.60;99.90;;;;;;5097051;28;20024;-83
2021/12/14 09:21:36;;;;;;;33.90;11.87;;;5.60;99.90;;;;;;5096395;28;20084;-82
2021/12/14 09:24:09;;;;;;;33.87;11.90;;;5.60;99.90;;;;;;5097292;28;20023;-83
2021/12/14 09:26:38;;;;;;;32.50;11.87;;;5.60;99.90;;;;;;5096551;28;20095;-83
2021/12/14 09:29:08;;;;;;;40.60;12.10;;;5.60;99.90;;;;;;5096777;28;20023;-83
2021/12/14 09:31:38;;;;;;;43.37;12.77;;;5.60;99.90;;;;;;5096156;28;20059;-83
2021/12/14 09:34:06;;;;;;;37.10;11.93;;;5.70;99.90;;;;;;5087990;28;20055;-82
2021/12/14 09:36:32;;;;;;;37.00;11.77;;;5.70;99.90;;;;;;5076065;28;20358;-83
2021/12/14 09:39:12;;;;;;;31.97;11.37;;;5.70;99.90;;;;;;5100779;28;20098;-83
2021/12/14 09:41:42;;;;;;;38.60;12.10;;;5.70;99.90;;;;;;5096921;28;20035;-82
2021/12/14 09:44:10;;;;;;;38.47;11.27;;;5.80;99.90;;;;;;5114590;28;20116;-84
2021/12/14 09:46:38;;;;;;;38.23;11.93;;;5.70;99.90;;;;;;5114257;28;20472;-83
2021/12/14 09:49:06;;;;;;;35.37;11.87;;;5.80;99.90;;;;;;5096649;28;20061;-83
2021/12/14 09:51:42;;;;;;;39.03;12.97;;;5.80;99.90;;;;;;5096355;28;20031;-83
2021/12/14 09:54:16;;;;;;;38.10;13.10;;;5.80;99.90;;;;;;5096540;28;20019;-83
2021/12/14 09:56:53;;;;;;;38.43;12.30;;;5.90;99.90;;;;;;5096386;28;20114;-83
2021/12/14 09:59:19;;;;;;;45.33;13.90;;;5.90;99.90;;;;;;5096195;28;20023;-83
2021/12/14 10:01:56;;;;;;;39.07;13.97;;;5.80;99.90;;;;;;5096576;28;20024;-83
2021/12/14 10:04:31;;;;;;;42.30;13.77;;;5.80;99.90;;;;;;5113981;28;20482;-83
2021/12/14 10:06:58;;;;;;;38.43;12.47;;;5.80;99.90;;;;;;5114676;28;20440;-83
2021/12/14 10:09:27;;;;;;;37.60;12.23;;;5.80;99.90;;;;;;5095994;28;20464;-83
2021/12/14 10:12:07;;;;;;;37.57;12.67;;;5.80;99.90;;;;;;5096035;28;20027;-83
2021/12/14 10:14:40;;;;;;;38.87;14.10;;;5.90;99.90;;;;;;5096389;28;20051;-83
2021/12/14 10:17:09;;;;;;;36.67;13.07;;;5.90;99.90;;;;;;5096666;28;20440;-83
2021/12/14 10:19:36;;;;;;;38.40;13.57;;;5.90;99.90;;;;;;5096064;28;20054;-83
2021/12/14 10:22:37;;;;;;;36.63;13.53;;;6.00;99.90;;;;;;5096286;28;20432;-83
2021/12/14 10:25:11;;;;;;;37.67;13.53;;;6.00;99.90;;;;;;5074444;28;20032;-82
2021/12/14 10:27:38;;;;;;;38.20;13.80;;;6.00;99.90;;;;;;5097368;28;20022;-83
2021/12/14 10:30:09;;;;;;;36.63;14.20;;;6.00;99.90;;;;;;5118200;28;20451;-83
2021/12/14 10:32:37;;;;;;;35.87;14.07;;;6.00;99.90;;;;;;5117074;28;20099;-83
2021/12/14 10:35:17;;;;;;;35.73;13.27;;;6.00;99.90;;;;;;5100070;28;20027;-82
2021/12/14 10:43:18;;;;;;;35.10;13.70;;;6.00;99.90;;;;;;5118343;28;20038;-83
2021/12/14 10:45:55;;;;;;;34.03;13.83;;;5.90;99.90;;;;;;5100440;28;20091;-83
2021/12/14 10:48:25;;;;;;;38.37;14.43;;;6.00;99.90;;;;;;5117310;28;20197;-84
2021/12/14 10:50:53;;;;;;;38.93;15.23;;;6.00;99.90;;;;;;5099561;28;20478;-83
2021/12/14 10:53:20;;;;;;;38.13;14.00;;;6.00;99.90;;;;;;5098336;28;20062;-82
2021/12/14 10:56:09;;;;;;;33.73;13.70;;;6.00;99.90;;;;;;5099661;28;20517;-83
2021/12/14 10:58:37;;;;;;;40.50;14.80;;;6.00;99.90;;;;;;5099722;28;20016;-83
2021/12/14 11:01:10;;;;;;;38.17;14.47;;;6.00;99.90;;;;;;5099986;28;20051;-83
2021/12/14 11:03:43;;;;;;;37.50;15.23;;;6.00;99.90;;;;;;5099538;28;20074;-83
2021/12/14 11:06:12;;;;;;;38.93;14.97;;;6.00;99.90;;;;;;5117380;28;20487;-82
2021/12/14 11:11:34;;;;;;;37.50;15.20;;;6.00;99.90;;;;;;5116394;28;20076;-82
2021/12/14 11:14:04;;;;;;;32.90;13.67;;;6.00;99.90;;;;;;5117445;28;20130;-82
2021/12/14 11:19:44;;;;;;;37.40;15.13;;;6.00;99.90;;;;;;5116626;28;20504;-83
2021/12/14 11:22:16;;;;;;;36.93;13.97;;;6.10;99.90;;;;;;5117376;28;20372;-82
2021/12/14 11:24:45;;;;;;;32.27;14.27;;;6.10;99.90;;;;;;5116859;28;20023;-82
2021/12/14 11:27:21;;;;;;;33.23;13.37;;;6.10;99.90;;;;;;5098905;28;20023;-81
2021/12/14 11:30:06;;;;;;;34.53;13.73;;;6.20;99.90;;;;;;5099175;28;20020;-83
2021/12/14 11:32:33;;;;;;;35.93;15.27;;;6.10;99.90;;;;;;5116735;28;20471;-83
2021/12/14 11:35:01;;;;;;;39.07;15.37;;;6.10;99.90;;;;;;5098926;28;20110;-82
2021/12/14 11:37:33;;;;;;;35.43;15.13;;;6.20;99.90;;;;;;5098586;28;20022;-83
2021/12/14 11:40:01;;;;;;;37.20;14.60;;;6.20;99.90;;;;;;5115677;28;20022;-82
2021/12/14 11:42:27;;;;;;;33.53;14.43;;;6.20;99.90;;;;;;5098341;28;20035;-83
2021/12/14 11:45:17;;;;;;;33.83;14.80;;;6.30;99.90;;;;;;5098853;28;20024;-83
2021/12/14 11:48:01;;;;;;;38.57;15.20;;;6.30;99.90;;;;;;5098421;28;20081;-84
2021/12/14 11:50:32;;;;;;;35.63;14.83;;;6.20;99.90;;;;;;5098029;28;20072;-83
2021/12/14 11:53:06;;;;;;;38.42;15.70;;;6.30;99.90;;;;;;5115387;28;20118;-82
2021/12/14 11:55:41;;;;;;;40.17;15.20;;;6.30;99.90;;;;;;5097749;28;20046;-84
2021/12/14 11:58:26;;;;;;;31.90;14.73;;;6.30;99.90;;;;;;5098863;28;20513;-83
2021/12/14 12:00:52;;;;;;;31.33;13.60;;;6.40;99.90;;;;;;5098486;28;20038;-83
2021/12/14 12:03:26;;;;;;;33.13;14.33;;;6.40;99.90;;;;;;5116487;28;20019;-83
2021/12/14 12:06:01;;;;;;;34.87;14.50;;;6.40;99.90;;;;;;5098634;28;20019;-83
2021/12/14 12:11:16;;;;;;;31.70;14.20;;;6.30;99.90;;;;;;5116275;28;20035;-83
2021/12/14 12:13:43;;;;;;;37.90;15.57;;;6.30;99.90;;;;;;5116068;28;20069;-83
2021/12/14 12:16:20;;;;;;;36.70;14.83;;;6.20;99.90;;;;;;5097918;28;20031;-82
2021/12/14 12:19:13;;;;;;;36.77;14.87;;;6.30;99.90;;;;;;5097643;28;20437;-83
2021/12/14 12:21:39;;;;;;;;;;;6.40;99.90;;;;;;5116011;28;20069;-83
2021/12/14 12:24:25;;;;;;;34.27;13.97;;;6.40;99.90;;;;;;5097918;28;20347;-83
2021/12/14 12:26:51;;;;;;;37.80;16.03;;;6.40;99.90;;;;;;5097711;28;20030;-83
2021/12/14 12:29:25;;;;;;;35.40;15.07;;;6.40;99.90;;;;;;5098132;28;20114;-82
2021/12/14 12:31:59;;;;;;;34.73;14.10;;;6.40;99.90;;;;;;5116094;28;20024;-83
2021/12/14 12:34:35;;;;;;;34.80;14.50;;;6.40;99.90;;;;;;5115302;28;20012;-83
2021/12/14 12:37:00;;;;;;;38.23;15.40;;;6.40;99.90;;;;;;5098030;28;20023;-83
2021/12/14 12:39:29;;;;;;;35.13;15.77;;;6.40;99.90;;;;;;5097485;28;20470;-82
2021/12/14 12:41:59;;;;;;;33.17;14.67;;;6.40;99.90;;;;;;5097271;28;20032;-83
2021/12/14 12:44:34;;;;;;;38.70;15.93;;;6.40;99.90;;;;;;5115113;28;20028;-83
2021/12/14 12:47:13;;;;;;;40.50;16.50;;;6.30;99.90;;;;;;5096862;28;20020;-82
2021/12/14 12:49:44;;;;;;;38.43;16.00;;;6.30;99.90;;;;;;5096512;28;20020;-82
2021/12/14 12:52:18;;;;;;;33.80;15.33;;;6.30;99.90;;;;;;5097559;28;20456;-82
2021/12/14 12:55:11;;;;;;;35.43;15.47;;;6.20;99.90;;;;;;5096722;28;20030;-83
2021/12/14 12:58:10;;;;;;;36.93;15.80;;;6.30;99.90;;;;;;5109518;28;20131;-83
2021/12/14 13:00:46;;;;;;;36.43;15.40;;;6.30;99.90;;;;;;5114854;28;20023;-81
2021/12/14 13:03:29;;;;;;;35.27;14.30;;;6.30;99.90;;;;;;5097293;28;20028;-82
2021/12/14 13:06:08;;;;;;;31.63;15.00;;;6.30;99.90;;;;;;5115079;28;20098;-82
2021/12/14 13:08:38;;;;;;;33.17;14.83;;;6.30;99.90;;;;;;5096658;28;20025;-82
2021/12/14 13:11:09;;;;;;;34.17;14.77;;;6.30;99.90;;;;;;5096957;28;20027;-82
2021/12/14 13:13:40;;;;;;;32.97;13.90;;;6.20;99.90;;;;;;5092908;28;20127;-83
2021/12/14 13:16:11;;;;;;;37.83;15.00;;;6.20;99.90;;;;;;5092131;28;20077;-82
2021/12/14 13:18:51;;;;;;;35.30;14.80;;;6.30;99.90;;;;;;5093202;28;20020;-82
2021/12/14 13:21:34;;;;;;;38.20;14.87;;;6.30;99.90;;;;;;5093603;28;20024;-83
2021/12/14 13:24:09;;;;;;;37.60;15.30;;;6.30;99.90;;;;;;5092701;28;20028;-82
2021/12/14 13:26:49;;;;;;;34.27;14.07;;;6.30;99.90;;;;;;5092881;28;20020;-82
2021/12/14 13:29:17;;;;;;;33.73;15.17;;;6.30;99.90;;;;;;5074180;28;20027;-82
2021/12/14 13:31:52;;;;;;;32.90;14.67;;;6.30;99.90;;;;;;5073988;28;20044;-83
2021/12/14 13:34:23;;;;;;;34.03;15.13;;;6.30;99.90;;;;;;5073992;28;20021;-82
2021/12/14 13:36:51;;;;;;;35.30;14.90;;;6.40;99.90;;;;;;5072794;28;20302;-82
2021/12/14 13:39:18;;;;;;;31.10;14.13;;;6.30;99.90;;;;;;5074128;28;20250;-82
2021/12/14 13:41:59;;;;;;;31.80;13.67;;;6.30;99.90;;;;;;5072339;28;20047;-82
2021/12/14 13:44:29;;;;;;;30.07;14.27;;;6.40;99.90;;;;;;5073050;28;20027;-82
2021/12/14 13:46:59;;;;;;;28.87;12.57;;;6.30;99.90;;;;;;5073889;28;20021;-83
2021/12/14 13:49:25;;;;;;;29.17;13.60;;;6.30;99.90;;;;;;5072872;28;20016;-82